createdAt,value
2023-04-04T00:01:04.278Z,7.42
2023-04-04T00:04:10.599Z,7.78
2023-04-04T00:07:15.843Z,8.13
2023-04-04T00:10:23.958Z,7.67
2023-04-04T00:13:31.047Z,7.58
2023-04-04T00:16:37.477Z,7.45
2023-04-04T00:19:44.914Z,8.03
2023-04-04T00:22:51.788Z,7.90
2023-04-04T00:26:00.559Z,7.50
2023-04-04T00:29:06.982Z,7.42
2023-04-04T00:32:13.404Z,9.53
2023-04-04T00:35:21.577Z,9.05
2023-04-04T00:38:26.890Z,8.73
2023-04-04T00:41:31.897Z,8.18
2023-04-04T00:44:38.556Z,8.48
2023-04-04T00:47:45.655Z,8.48
2023-04-04T00:50:52.786Z,8.10
2023-04-04T00:54:01.447Z,8.70
2023-04-04T00:57:06.324Z,8.30
2023-04-04T01:00:14.372Z,7.78
2023-04-04T01:03:21.421Z,8.68
2023-04-04T01:06:28.453Z,7.92
2023-04-04T01:09:37.652Z,8.13
2023-04-04T01:12:43.845Z,8.60
2023-04-04T01:15:48.866Z,8.70
2023-04-04T01:18:55.673Z,8.85
2023-04-04T01:22:01.090Z,8.53
2023-04-04T01:25:08.201Z,9.03
2023-04-04T01:28:16.465Z,10.15
2023-04-04T01:31:22.757Z,9.13
2023-04-04T01:35:09.134Z,9.63
2023-04-04T01:38:30.273Z,8.65
2023-04-04T01:41:36.928Z,9.95
2023-04-04T01:44:44.158Z,10.13
2023-04-04T01:47:56.337Z,10.32
2023-04-04T01:51:03.488Z,10.05
2023-04-04T01:54:08.892Z,9.38
2023-04-04T01:57:15.068Z,9.95
2023-04-04T02:00:23.093Z,9.58
2023-04-04T02:03:28.586Z,9.55
2023-04-04T02:06:34.752Z,10.60
2023-04-04T02:09:41.142Z,9.60
2023-04-04T02:12:46.885Z,9.45
2023-04-04T02:15:53.495Z,9.25
2023-04-04T02:19:00.241Z,9.28
2023-04-04T02:22:09.062Z,9.03
2023-04-04T02:25:15.313Z,9.43
2023-04-04T02:28:21.343Z,9.33
2023-04-04T02:31:27.598Z,8.98
2023-04-04T02:34:34.257Z,9.13
2023-04-04T02:37:41.400Z,8.88
2023-04-04T02:40:54.808Z,9.55
2023-04-04T02:44:00.749Z,8.90
2023-04-04T02:47:06.590Z,9.43
2023-04-04T02:50:12.764Z,8.68
2023-04-04T02:53:19.376Z,10.78
2023-04-04T02:56:26.320Z,11.57
2023-04-04T02:59:33.082Z,9.73
2023-04-04T03:02:40.384Z,10.05
2023-04-04T03:05:47.542Z,9.23
2023-04-04T03:08:54.137Z,9.33
2023-04-04T03:11:59.830Z,8.00
2023-04-04T03:15:07.808Z,9.30
2023-04-04T03:18:14.995Z,9.18
2023-04-04T03:21:21.635Z,9.03
2023-04-04T03:24:30.109Z,9.95
2023-04-04T03:27:36.659Z,9.95
2023-04-04T03:30:45.912Z,8.50
2023-04-04T03:33:53.672Z,9.03
2023-04-04T03:37:00.799Z,8.63
2023-04-04T03:40:08.357Z,8.10
2023-04-04T03:43:13.807Z,8.45
2023-04-04T03:46:22.385Z,8.55
2023-04-04T03:49:29.204Z,8.75
2023-04-04T03:52:35.722Z,8.00
2023-04-04T03:55:40.835Z,7.80
2023-04-04T03:58:46.662Z,7.45
2023-04-04T04:01:53.465Z,7.47
2023-04-04T04:05:01.915Z,8.50
2023-04-04T04:08:07.876Z,8.48
2023-04-04T04:11:20.487Z,9.28
2023-04-04T04:14:26.777Z,18.87
2023-04-04T04:17:34.182Z,18.92
2023-04-04T04:20:41.153Z,16.27
2023-04-04T04:23:48.480Z,13.70
2023-04-04T04:26:56.800Z,11.93
2023-04-04T04:30:03.750Z,9.75
2023-04-04T04:33:13.005Z,8.00
2023-04-04T04:36:23.132Z,8.30
2023-04-04T04:39:35.072Z,7.47
2023-04-04T04:42:42.384Z,8.10
2023-04-04T04:45:50.109Z,7.55
2023-04-04T04:48:56.684Z,8.23
2023-04-04T04:52:03.071Z,7.47
2023-04-04T04:55:11.353Z,7.45
2023-04-04T04:58:19.477Z,8.78
2023-04-04T05:01:25.806Z,8.90
2023-04-04T05:04:30.506Z,8.18
2023-04-04T05:07:39.565Z,7.83
2023-04-04T05:10:47.277Z,7.97
2023-04-04T05:13:55.864Z,8.20
2023-04-04T05:17:04.154Z,8.45
2023-04-04T05:20:11.706Z,9.23
2023-04-04T05:23:19.718Z,7.72
2023-04-04T05:26:27.075Z,7.53
2023-04-04T05:29:32.751Z,9.20
2023-04-04T05:32:40.429Z,8.65
2023-04-04T05:35:49.505Z,7.65
2023-04-04T05:38:56.921Z,7.85
2023-04-04T05:42:03.891Z,8.13
2023-04-04T05:45:12.844Z,8.73
2023-04-04T05:48:19.280Z,7.00
2023-04-04T05:51:25.100Z,7.60
2023-04-04T05:54:32.511Z,7.40
2023-04-04T05:57:39.626Z,7.42
2023-04-04T06:00:46.248Z,7.40
2023-04-04T06:03:53.470Z,7.03
2023-04-04T06:07:01.069Z,6.97
2023-04-04T06:10:07.259Z,7.58
2023-04-04T06:13:14.684Z,6.50
2023-04-04T06:16:22.458Z,7.10
2023-04-04T06:19:29.556Z,7.67
2023-04-04T06:22:36.708Z,7.20
2023-04-04T06:25:42.831Z,7.42
2023-04-04T06:28:50.695Z,7.37
2023-04-04T06:31:59.326Z,7.97
2023-04-04T06:35:08.194Z,6.95
2023-04-04T06:38:16.866Z,7.03
2023-04-04T06:41:23.848Z,7.00
2023-04-04T06:44:32.455Z,6.35
2023-04-04T06:47:40.159Z,6.55
2023-04-04T06:50:45.948Z,6.45
2023-04-04T06:53:52.803Z,5.80
2023-04-04T06:56:59.453Z,6.15
2023-04-04T07:00:05.491Z,6.47
2023-04-04T07:03:15.873Z,5.92
2023-04-04T07:06:24.016Z,5.15
2023-04-04T07:09:30.713Z,5.50
2023-04-04T07:12:38.881Z,5.50
2023-04-04T07:15:46.474Z,5.75
2023-04-04T07:18:53.262Z,6.03
2023-04-04T07:22:01.542Z,5.47
2023-04-04T07:25:07.894Z,5.53
2023-04-04T07:28:13.847Z,5.60
2023-04-04T07:31:21.941Z,6.42
2023-04-04T07:34:27.805Z,6.03
2023-04-04T07:37:37.496Z,5.87
2023-04-04T07:40:45.680Z,34.10
2023-04-04T07:43:52.393Z,5.65
2023-04-04T07:47:08.569Z,5.87
2023-04-04T07:50:05.191Z,5.92
2023-04-04T07:53:14.354Z,6.05
2023-04-04T07:56:21.784Z,6.20
2023-04-04T08:00:00.147Z,6.33
2023-04-04T08:03:11.629Z,6.75
2023-04-04T08:06:19.498Z,5.87
2023-04-04T08:09:25.899Z,5.22
2023-04-04T08:12:33.905Z,5.37
2023-04-04T08:15:40.161Z,5.62
2023-04-04T08:18:47.972Z,5.55
2023-04-04T08:21:54.203Z,7.05
2023-04-04T08:25:01.007Z,5.45
2023-04-04T08:28:07.602Z,5.40
2023-04-04T08:31:15.686Z,5.30
2023-04-04T08:34:21.933Z,9.13
2023-04-04T08:37:27.680Z,6.47
2023-04-04T08:40:34.983Z,6.35
2023-04-04T08:43:41.132Z,6.15
2023-04-04T08:46:48.631Z,5.95
2023-04-04T08:50:00.746Z,6.60
2023-04-04T08:53:08.470Z,6.50
2023-04-04T08:56:15.219Z,6.10
2023-04-04T08:59:22.996Z,6.37
2023-04-04T09:02:43.732Z,6.08
2023-04-04T09:05:48.320Z,6.50
2023-04-04T09:08:53.481Z,6.22
2023-04-04T09:11:58.854Z,6.28
2023-04-04T09:15:06.360Z,6.60
2023-04-04T09:18:14.179Z,6.10
2023-04-04T09:21:26.464Z,6.47
2023-04-04T09:24:32.916Z,6.37
2023-04-04T09:27:41.014Z,6.50
2023-04-04T09:30:48.227Z,6.67
2023-04-04T09:33:55.007Z,6.85
2023-04-04T09:37:03.292Z,6.75
2023-04-04T09:40:11.023Z,7.17
2023-04-04T09:43:17.385Z,7.33
2023-04-04T09:46:22.151Z,7.37
2023-04-04T09:49:35.123Z,7.25
2023-04-04T09:52:43.363Z,7.20
2023-04-04T09:55:53.348Z,6.87
2023-04-04T09:59:05.102Z,6.53
2023-04-04T10:02:12.524Z,7.78
2023-04-04T10:05:19.062Z,7.33
2023-04-04T10:08:30.938Z,6.90
2023-04-04T10:11:50.130Z,7.10
2023-04-04T10:14:59.561Z,6.22
2023-04-04T10:18:06.227Z,7.15
2023-04-04T10:21:15.863Z,7.05
2023-04-04T10:24:21.437Z,7.87
2023-04-04T10:27:28.086Z,7.70
2023-04-04T10:30:34.166Z,6.97
2023-04-04T10:34:25.849Z,6.33
2023-04-04T10:37:37.407Z,6.80
2023-04-04T10:40:50.003Z,6.28
2023-04-04T10:43:56.290Z,5.92
2023-04-04T10:47:04.760Z,6.60
2023-04-04T10:50:11.668Z,7.00
2023-04-04T10:53:18.273Z,5.60
2023-04-04T10:56:25.140Z,6.55
2023-04-04T10:59:31.829Z,5.62
2023-04-04T11:03:04.604Z,6.17
2023-04-04T11:06:11.368Z,5.72
2023-04-04T11:09:17.464Z,5.35
2023-04-04T11:12:29.108Z,6.08
2023-04-04T11:15:39.169Z,5.50
2023-04-04T11:18:59.681Z,6.05
2023-04-04T11:22:08.794Z,6.15
2023-04-04T11:25:16.293Z,6.08
2023-04-04T11:28:29.926Z,6.12
2023-04-04T11:31:43.225Z,6.40
2023-04-04T11:38:13.276Z,6.10
2023-04-04T11:41:22.204Z,6.78
2023-04-04T11:44:32.816Z,6.20
2023-04-04T11:47:40.257Z,6.42
2023-04-04T11:50:56.622Z,9.68
2023-04-04T11:54:04.125Z,6.67
2023-04-04T11:57:11.052Z,6.30
2023-04-04T12:00:18.749Z,7.80
2023-04-04T12:03:25.757Z,6.58
2023-04-04T12:06:32.608Z,6.03
2023-04-04T12:09:40.802Z,6.53
2023-04-04T12:12:46.237Z,6.87
2023-04-04T12:15:53.043Z,6.40
2023-04-04T12:19:01.727Z,6.95
2023-04-04T12:22:09.814Z,6.92
2023-04-04T12:25:16.993Z,7.08
2023-04-04T12:28:22.828Z,7.33
2023-04-04T12:31:29.387Z,6.97
2023-04-04T12:34:43.054Z,6.65
2023-04-04T12:37:51.153Z,6.60
2023-04-04T12:40:58.153Z,6.37
2023-04-04T12:44:04.339Z,7.12
2023-04-04T12:47:17.628Z,7.15
2023-04-04T12:50:25.668Z,7.65
2023-04-04T12:53:30.896Z,7.30
2023-04-04T12:56:40.406Z,7.50
2023-04-04T12:59:49.197Z,7.47
2023-04-04T13:02:56.979Z,7.12
2023-04-04T13:06:04.944Z,7.60
2023-04-04T13:09:10.929Z,7.12
2023-04-04T13:12:20.905Z,10.98
2023-04-04T13:15:28.136Z,8.03
2023-04-04T13:18:38.662Z,7.42
2023-04-04T13:21:46.460Z,7.62
2023-04-04T13:24:53.331Z,7.55
2023-04-04T13:28:01.177Z,6.90
2023-04-04T13:31:07.105Z,6.92
2023-04-04T13:34:14.264Z,6.97
2023-04-04T13:37:20.150Z,7.67
2023-04-04T13:40:26.511Z,7.45
2023-04-04T13:43:34.097Z,6.53
2023-04-04T13:46:40.713Z,6.60
2023-04-04T13:49:45.976Z,6.62
2023-04-04T13:52:52.057Z,6.72
2023-04-04T13:56:17.021Z,5.92
2023-04-04T13:59:04.476Z,7.45
2023-04-04T14:02:12.567Z,7.00
2023-04-04T14:05:19.029Z,6.90
2023-04-04T14:08:26.430Z,6.28
2023-04-04T14:11:34.489Z,6.97
2023-04-04T14:14:39.735Z,6.33
2023-04-04T14:17:47.213Z,6.92
2023-04-04T14:20:53.827Z,7.05
2023-04-04T14:24:00.508Z,7.25
2023-04-04T14:27:08.340Z,7.22
2023-04-04T14:30:17.307Z,7.05
2023-04-04T14:33:23.861Z,7.95
2023-04-04T14:36:31.621Z,7.80
2023-04-04T14:39:38.635Z,7.47
2023-04-04T14:42:44.256Z,6.40
2023-04-04T14:45:50.942Z,7.20
2023-04-04T14:48:56.899Z,7.10
2023-04-04T14:52:05.610Z,6.87
2023-04-04T14:55:12.401Z,7.40
2023-04-04T14:58:18.324Z,6.87
2023-04-04T15:01:24.140Z,7.85
2023-04-04T15:04:30.244Z,7.87
2023-04-04T15:07:36.146Z,7.45
2023-04-04T15:10:42.476Z,8.05
2023-04-04T15:13:49.680Z,7.95
2023-04-04T15:16:56.018Z,39.10
2023-04-04T15:20:02.182Z,14.85
2023-04-04T15:23:09.173Z,10.00
2023-04-04T15:26:14.948Z,10.93
2023-04-04T15:29:23.838Z,7.85
2023-04-04T15:32:31.234Z,8.35
2023-04-04T15:35:38.714Z,7.67
2023-04-04T15:38:44.517Z,8.48
2023-04-04T15:41:51.070Z,8.00
2023-04-04T15:44:57.324Z,8.43
2023-04-04T15:48:05.212Z,9.25
2023-04-04T15:51:15.359Z,14.40
2023-04-04T15:54:21.946Z,12.43
2023-04-04T15:57:27.618Z,11.43
2023-04-04T16:00:38.837Z,11.22
2023-04-04T16:03:46.270Z,10.35
2023-04-04T16:06:54.227Z,10.58
2023-04-04T16:09:59.594Z,9.93
2023-04-04T16:13:06.283Z,10.60
2023-04-04T16:16:13.953Z,11.38
2023-04-04T16:19:24.268Z,14.45
2023-04-04T16:22:30.569Z,15.40
2023-04-04T16:25:37.720Z,18.00
2023-04-04T16:28:45.511Z,19.55
2023-04-04T16:31:53.372Z,16.35
2023-04-04T16:35:01.981Z,16.40
2023-04-04T16:38:10.288Z,14.15
2023-04-04T16:41:16.901Z,13.40
2023-04-04T16:44:22.911Z,12.33
2023-04-04T16:47:28.939Z,12.20
2023-04-04T16:50:35.512Z,12.95
2023-04-04T16:53:42.932Z,13.30
2023-04-04T16:56:48.931Z,13.72
2023-04-04T16:59:56.776Z,15.30
2023-04-04T17:03:03.007Z,18.52
2023-04-04T17:06:09.528Z,18.00
2023-04-04T17:09:15.082Z,18.05
2023-04-04T17:12:23.836Z,17.05
2023-04-04T17:15:31.802Z,13.93
2023-04-04T17:18:38.342Z,13.38
2023-04-04T17:21:44.679Z,14.33
2023-04-04T17:24:49.977Z,12.53
2023-04-04T17:27:55.216Z,12.35
2023-04-04T17:31:01.261Z,12.13
2023-04-04T17:34:11.137Z,12.60
2023-04-04T17:37:18.539Z,12.47
2023-04-04T17:40:27.380Z,11.03
2023-04-04T17:43:32.956Z,10.58
2023-04-04T17:46:38.975Z,10.28
2023-04-04T17:49:45.955Z,9.68
2023-04-04T17:52:52.760Z,10.32
2023-04-04T17:55:58.732Z,9.58
2023-04-04T17:59:04.649Z,9.95
2023-04-04T18:02:11.737Z,9.55
2023-04-04T18:05:16.828Z,8.93
2023-04-04T18:08:24.161Z,9.75
2023-04-04T18:11:32.369Z,9.20
2023-04-04T18:14:38.242Z,9.28
2023-04-04T18:17:40.260Z,14.98
2023-04-04T18:20:35.368Z,14.98
2023-04-04T18:23:42.644Z,10.05
2023-04-04T18:26:48.099Z,9.53
2023-04-04T18:29:53.736Z,10.28
2023-04-04T18:33:00.831Z,13.45
2023-04-04T18:36:09.783Z,13.90
2023-04-04T18:39:17.809Z,14.90
2023-04-04T18:42:23.582Z,13.98
2023-04-04T18:45:39.322Z,12.43
2023-04-04T18:48:40.218Z,13.28
2023-04-04T18:51:46.950Z,13.08
2023-04-04T18:54:53.921Z,13.22
2023-04-04T18:58:01.086Z,13.70
2023-04-04T19:01:10.081Z,12.98
2023-04-04T19:04:17.106Z,14.30
2023-04-04T19:07:22.953Z,13.98
2023-04-04T19:10:28.837Z,15.63
2023-04-04T19:13:36.635Z,18.48
2023-04-04T19:16:43.140Z,20.60
2023-04-04T19:19:50.221Z,23.32
2023-04-04T19:22:57.769Z,23.85
2023-04-04T19:26:04.725Z,21.85
2023-04-04T19:29:14.041Z,19.80
2023-04-04T19:32:31.797Z,23.05
2023-04-04T19:35:40.966Z,24.07
2023-04-04T19:38:56.541Z,26.75
2023-04-04T19:42:05.322Z,25.08
2023-04-04T19:45:12.130Z,24.77
2023-04-04T19:48:21.047Z,19.67
2023-04-04T19:51:39.900Z,18.12
2023-04-04T19:54:49.135Z,18.98
2023-04-04T19:57:55.242Z,17.87
2023-04-04T20:01:00.973Z,16.25
2023-04-04T20:04:07.184Z,14.18
2023-04-04T20:07:12.948Z,15.05
2023-04-04T20:10:19.158Z,15.00
2023-04-04T20:13:25.354Z,14.93
2023-04-04T20:16:31.559Z,15.08
2023-04-04T20:19:37.420Z,15.35
2023-04-04T20:22:43.301Z,14.68
2023-04-04T20:25:56.478Z,15.15
2023-04-04T20:29:03.015Z,15.05
2023-04-04T20:32:20.955Z,16.60
2023-04-04T20:35:44.363Z,14.98
2023-04-04T20:38:52.269Z,15.78
2023-04-04T20:41:57.956Z,17.07
2023-04-04T20:45:04.970Z,16.93
2023-04-04T20:48:11.784Z,18.00
2023-04-04T20:51:17.873Z,20.80
2023-04-04T20:54:27.115Z,18.20
2023-04-04T20:57:37.699Z,16.87
2023-04-04T21:00:54.153Z,16.57
2023-04-04T21:04:01.326Z,14.18
2023-04-04T21:07:09.165Z,14.85
2023-04-04T21:10:14.566Z,15.50
2023-04-04T21:13:20.306Z,15.30
2023-04-04T21:16:30.873Z,15.40
2023-04-04T21:19:37.831Z,15.98
2023-04-04T21:22:43.177Z,16.65
2023-04-04T21:25:59.029Z,17.02
2023-04-04T21:29:07.057Z,15.45
2023-04-04T21:32:17.076Z,14.53
2023-04-04T21:35:22.908Z,14.70
2023-04-04T21:38:41.799Z,15.65
2023-04-04T21:41:48.983Z,15.10
2023-04-04T21:44:55.244Z,15.98
2023-04-04T21:48:02.569Z,15.20
2023-04-04T21:51:10.495Z,15.05
2023-04-04T21:54:17.034Z,15.03
2023-04-04T21:57:23.274Z,13.98
2023-04-04T22:00:30.569Z,14.33
2023-04-04T22:03:37.954Z,13.78
2023-04-04T22:06:44.530Z,14.30
2023-04-04T22:09:49.630Z,14.40
2023-04-04T22:12:56.873Z,14.65
2023-04-04T22:16:06.226Z,16.07
2023-04-04T22:19:12.584Z,15.10
2023-04-04T22:22:20.254Z,15.10
2023-04-04T22:25:28.340Z,13.75
2023-04-04T22:28:35.278Z,13.18
2023-04-04T22:31:43.883Z,13.30
2023-04-04T22:34:50.633Z,12.33
2023-04-04T22:37:57.459Z,11.83
2023-04-04T22:41:03.576Z,11.73
2023-04-04T22:44:10.428Z,11.60
2023-04-04T22:47:18.505Z,11.65
2023-04-04T22:50:25.080Z,11.43
2023-04-04T22:53:31.958Z,10.65
2023-04-04T22:56:37.992Z,11.65
2023-04-04T22:59:44.132Z,10.05
2023-04-04T23:02:51.825Z,10.98
2023-04-04T23:05:57.496Z,11.18
2023-04-04T23:09:04.353Z,11.33
2023-04-04T23:12:09.944Z,10.68
2023-04-04T23:15:16.660Z,11.50
2023-04-04T23:18:22.845Z,11.88
2023-04-04T23:21:29.439Z,11.55
2023-04-04T23:24:35.227Z,10.23
2023-04-04T23:27:41.500Z,10.82
2023-04-04T23:30:47.596Z,10.60
2023-04-04T23:33:55.683Z,10.23
2023-04-04T23:37:02.124Z,9.38
2023-04-04T23:40:09.676Z,9.95
2023-04-04T23:43:15.513Z,8.33
2023-04-04T23:46:22.764Z,8.95
2023-04-04T23:49:28.872Z,9.23
2023-04-04T23:52:35.918Z,7.67
2023-04-04T23:55:42.599Z,8.60
2023-04-04T23:58:48.887Z,8.45
